Data for 05/31/2018

Time Sea-Level Adjusted Pressure Absolute Pressure Temperature Relative Humidity Dew Point   
(mb) (inHg) (mb) (inHg) (C) (F) (%) (C) (F)
00:05 1012 29.88 841 24.83 11.6 53 76 7.6 45.7
00:10 1012 29.88 841 24.83 11.6 52.9 76 7.5 45.5
00:15 1012 29.88 841 24.83 11.8 53.2 76 7.6 45.7
00:20 1012 29.88 841 24.83 11.8 53.3 75 7.6 45.7
00:25 1012 29.88 841 24.83 11.9 53.5 74 7.6 45.6
00:30 1012 29.88 841 24.83 12.1 53.7 73 7.4 45.4
00:35 1012 29.88 841 24.83 12.2 54 72 7.3 45.2
00:40 1012 29.88 841 24.83 12.4 54.3 71 7.3 45.1
00:45 1012 29.88 841 24.83 12.5 54.5 70 7.1 44.9
00:50 1012 29.88 841 24.83 12.8 55 68 7 44.6
00:55 1012 29.88 841 24.83 13 55.4 66 6.8 44.2
01:00 1012 29.88 841 24.83 13.1 55.6 66 7.1 44.7
01:05 1011 29.85 841 24.83 13 55.4 66 7 44.5
01:10 1011 29.85 841 24.83 13 55.4 66 6.9 44.3
01:15 1011 29.85 841 24.83 13 55.4 66 6.8 44.3
01:20 1011 29.85 841 24.83 13 55.4 65 6.7 44.1
01:25 1011 29.85 841 24.83 13 55.3 65 6.7 44
01:30 1011 29.85 841 24.83 13 55.5 64 6.5 43.7
01:35 1011 29.85 841 24.83 13.1 55.6 64 6.5 43.7
01:40 1011 29.85 841 24.83 13.2 55.7 64 6.5 43.6
01:45 1011 29.85 841 24.83 13.2 55.7 62 6.2 43.2
01:50 1011 29.85 840 24.81 13.3 55.9 62 6.2 43.2
01:55 1011 29.85 841 24.83 13.2 55.8 63 6.4 43.5
02:00 1011 29.85 841 24.83 13.3 55.9 64 6.6 43.8
02:05 1011 29.85 841 24.83 13.1 55.6 70 7.8 46.1
02:10 1011 29.85 841 24.83 12.6 54.6 75 8.3 46.9
02:15 1011 29.85 841 24.83 12 53.5 78 8.3 47
02:20 1011 29.85 841 24.83 11.6 52.8 80 8.2 46.8
02:25 1011 29.85 841 24.83 11.5 52.6 81 8.4 47.1
02:30 1011 29.85 841 24.83 11.3 52.3 81 8.2 46.7
02:35 1011 29.85 841 24.83 11.3 52.4 81 8.2 46.7
02:40 1012 29.88 841 24.83 11.4 52.6 80 8.2 46.8
02:45 1012 29.88 841 24.83 11.4 52.6 80 8.2 46.8
02:50 1012 29.88 841 24.83 11.4 52.5 81 8.3 46.9
02:55 1012 29.88 841 24.83 11.4 52.4 81 8.3 46.9
03:00 1012 29.88 841 24.83 11.3 52.3 81 8.3 46.9
03:05 1012 29.88 841 24.83 11.3 52.3 81 8.2 46.7
03:10 1012 29.88 841 24.83 11.2 52.1 82 8.2 46.7
03:15 1012 29.88 841 24.83 11.1 51.9 83 8.2 46.8
03:20 1012 29.88 841 24.83 10.8 51.5 83 8.1 46.6
03:25 1012 29.88 841 24.83 10.8 51.4 83 8.1 46.6
03:30 1012 29.88 841 24.83 10.9 51.5 83 8.1 46.7
03:35 1012 29.88 841 24.83 10.9 51.5 83 8.1 46.5
03:40 1012 29.88 841 24.83 10.9 51.6 83 8.1 46.5
03:45 1012 29.88 841 24.83 10.9 51.7 83 8.1 46.6
03:50 1012 29.88 841 24.83 11 51.8 83 8.2 46.7
03:55 1012 29.88 841 24.83 10.9 51.7 83 8.1 46.6
04:00 1012 29.88 841 24.83 10.8 51.5 83 8.1 46.6
04:05 1012 29.88 841 24.83 10.8 51.4 83 8 46.5
04:10 1012 29.88 841 24.83 10.7 51.3 83 8 46.4
04:15 1012 29.88 841 24.83 10.7 51.2 84 8 46.5
04:20 1013 29.91 842 24.86 10.7 51.2 83 7.8 46.1
04:25 1013 29.91 842 24.86 10.7 51.3 83 8 46.4
04:30 1013 29.91 842 24.86 10.8 51.4 84 8.1 46.6
04:35 1013 29.91 842 24.86 10.9 51.5 83 8.1 46.5
04:40 1013 29.91 842 24.86 11 51.8 82 8.1 46.6
04:45 1013 29.91 842 24.86 11 51.8 82 8.2 46.7
04:50 1013 29.91 842 24.86 11 51.9 82 8.2 46.7
04:55 1013 29.91 842 24.86 10.9 51.6 83 8.1 46.6
05:00 1013 29.91 842 24.86 10.8 51.4 84 8.1 46.6
05:05 1013 29.91 842 24.86 10.5 50.8 84 8 46.4
05:10 1013 29.91 842 24.86 10.2 50.3 85 7.8 46.1
05:15 1013 29.91 842 24.86 10 50 86 7.8 46
05:20 1013 29.91 842 24.86 10 49.9 86 7.7 45.8
05:25 1012 29.88 842 24.86 10 50 85 7.6 45.7
05:30 1012 29.88 842 24.86 10.1 50.2 85 7.7 45.8
05:35 1012 29.88 842 24.86 10.1 50.1 85 7.7 45.9
05:40 1012 29.88 842 24.86 10.1 50.1 85 7.7 45.8
05:45 1012 29.88 842 24.86 10.1 50.3 85 7.7 45.9
05:50 1012 29.88 842 24.86 10.2 50.4 84 7.7 45.9
05:55 1012 29.88 842 24.86 10.3 50.6 84 7.8 46.1
06:00 1012 29.88 842 24.86 10.5 50.8 84 7.8 46.1
06:05 1012 29.88 842 24.86 10.5 51 83 7.8 46.1
06:10 1012 29.88 842 24.86 10.4 50.8 83 7.8 46
06:15 1012 29.88 842 24.86 10 50.1 85 7.7 45.8
06:20 1012 29.88 842 24.86 10 49.9 85 7.5 45.6
06:25 1012 29.88 842 24.86 10 49.9 85 7.6 45.7
06:30 1012 29.88 842 24.86 10 50 85 7.6 45.6
06:35 1012 29.88 842 24.86 10.1 50.2 84 7.6 45.7
06:40 1012 29.88 841 24.83 10.2 50.3 84 7.6 45.6
06:45 1012 29.88 841 24.83 10.2 50.3 83 7.5 45.5
06:50 1012 29.88 841 24.83 10.2 50.4 84 7.6 45.7
06:55 1012 29.88 841 24.83 10.2 50.3 83 7.5 45.5
07:00 1012 29.88 841 24.83 10.5 50.8 82 7.6 45.7
07:05 1012 29.88 841 24.83 10.5 50.8 82 7.6 45.7
07:10 1012 29.88 841 24.83 10.7 51.2 81 7.6 45.7
07:15 1012 29.88 841 24.83 10.9 51.7 80 7.7 45.8
07:20 1012 29.88 841 24.83 11.2 52.2 79 7.7 45.9
07:25 1012 29.88 841 24.83 11.8 53.2 76 7.8 46
07:30 1012 29.88 841 24.83 12 53.6 76 7.9 46.2
07:35 1012 29.88 841 24.83 12.4 54.3 75 8.2 46.7
07:40 1012 29.88 841 24.83 12.7 54.9 73 8 46.4
07:45 1012 29.88 841 24.83 12.8 55.1 71 7.8 46
07:50 1012 29.88 841 24.83 13.4 56.1 69 7.9 46.1
07:55 1012 29.88 841 24.83 13.4 56.1 68 7.7 45.9
08:00 1012 29.88 841 24.83 13.9 57 66 7.6 45.7
08:05 1012 29.88 841 24.83 14.6 58.2 63 7.6 45.7
08:10 1012 29.88 841 24.83 14.5 58.1 63 7.7 45.8
08:15 1012 29.88 841 24.83 14.8 58.6 62 7.7 45.9
08:20 1012 29.88 841 24.83 15 59 65 8.6 47.6
08:25 1012 29.88 841 24.83 14.2 57.5 67 8.1 46.6
08:30 1012 29.88 841 24.83 14.6 58.3 64 8 46.4
08:35 1012 29.88 841 24.83 14.4 57.9 66 8.2 46.7
08:40 1012 29.88 841 24.83 14.4 57.9 64 7.8 46
08:45 1012 29.88 841 24.83 14.3 57.7 66 8 46.5
08:50 1012 29.88 841 24.83 14 57.2 67 8 46.4
08:55 1012 29.88 841 24.83 14.1 57.4 65 7.8 46
09:00 1012 29.88 841 24.83 14.6 58.2 66 8.4 47.2
09:05 1012 29.88 841 24.83 14.6 58.2 66 8.3 47
09:10 1012 29.88 841 24.83 14.6 58.3 66 8.5 47.3
09:15 1012 29.88 841 24.83 14.8 58.7 67 8.8 47.9
09:20 1012 29.88 841 24.83 15.1 59.2 64 8.3 47
09:25 1012 29.88 841 24.83 14.7 58.5 68 8.8 47.9
09:30 1012 29.88 841 24.83 14.3 57.7 68 8.6 47.4
09:35 1012 29.88 841 24.83 14.5 58 65 8 46.4
09:40 1012 29.88 841 24.83 15.1 59.2 64 8.4 47.2
09:45 1011 29.85 841 24.83 15.3 59.5 65 8.8 47.9
09:50 1011 29.85 841 24.83 15.7 60.2 63 8.6 47.5
09:55 1011 29.85 841 24.83 16 60.8 64 9.2 48.5
10:00 1012 29.88 841 24.83 15.7 60.3 67 9.6 49.2
10:05 1011 29.85 841 24.83 15.2 59.4 65 8.8 47.9
10:10 1012 29.88 841 24.83 15 59 67 8.9 48.1
10:15 1012 29.88 841 24.83 15.4 59.6 65 8.9 48.1
10:20 1012 29.88 841 24.83 15.6 60.1 64 8.8 47.9
10:25 1012 29.88 841 24.83 15.6 60.1 65 9.2 48.5
10:30 1012 29.88 841 24.83 15.9 60.6 63 9 48.3
10:35 1012 29.88 841 24.83 16.2 61.2 62 9 48.2
10:40 1012 29.88 841 24.83 16.4 61.5 62 9.2 48.5
10:45 1012 29.88 841 24.83 16.2 61.2 62 9.1 48.4
10:50 1012 29.88 841 24.83 16.2 61.1 61 8.9 47.9
10:55 1012 29.88 841 24.83 16.3 61.3 62 9 48.1
11:00 1012 29.88 841 24.83 16.5 61.6 60 8.9 48
11:05 1012 29.88 841 24.83 16.1 61 63 9.2 48.6
11:10 1012 29.88 841 24.83 16.3 61.3 64 9.6 49.2
11:15 1012 29.88 841 24.83 16.4 61.4 64 9.5 49.2
11:20 1012 29.88 841 24.83 16.2 61.1 64 9.5 49.1
11:25 1012 29.88 841 24.83 16.4 61.5 61 9 48.2
11:30 1012 29.88 841 24.83 16.7 62.1 60 9.1 48.4
11:35 1012 29.88 841 24.83 17 62.6 61 9.4 48.9
11:40 1012 29.88 841 24.83 16.1 61 61 8.6 47.5
11:45 1012 29.88 841 24.83 16.1 61 61 8.6 47.4
11:50 1012 29.88 841 24.83 16.2 61.2 59 8.3 47
11:55 1012 29.88 841 24.83 16.3 61.4 60 8.7 47.6
12:00 1012 29.88 841 24.83 16.1 61 59 8.1 46.6
12:05 1012 29.88 841 24.83 15.8 60.5 62 8.6 47.5
12:10 1012 29.88 841 24.83 15.8 60.4 67 9.7 49.5
12:15 1012 29.88 841 24.83 15.6 60 66 9.4 48.9
12:20 1012 29.88 841 24.83 15.6 60 64 8.8 47.9
12:25 1012 29.88 841 24.83 15.4 59.6 65 8.8 47.8
12:30 1012 29.88 841 24.83 15.5 59.9 64 8.7 47.6
12:35 1012 29.88 841 24.83 16 60.8 61 8.5 47.4
12:40 1011 29.85 841 24.83 16.3 61.3 60 8.5 47.3
12:45 1011 29.85 841 24.83 17 62.5 59 9.1 48.3
12:50 1011 29.85 840 24.81 17.2 62.9 58 9 48.3
12:55 1011 29.85 840 24.81 18.1 64.5 54 8.7 47.7
13:00 1011 29.85 840 24.81 17.5 63.5 57 9.1 48.4
13:05 1011 29.85 840 24.81 18.3 64.9 54 8.9 48
13:10 1011 29.85 840 24.81 18.8 65.9 51 8.5 47.4
13:15 1011 29.85 840 24.81 19.3 66.7 47 7.8 46.1
13:20 1011 29.85 840 24.81 20.3 68.6 42 7.3 45.1
13:25 1011 29.85 840 24.81 20.5 68.9 44 8 46.4
13:30 1010 29.83 840 24.81 19.9 67.9 48 8.7 47.7
13:35 1010 29.83 840 24.81 20 68.1 45 8 46.5
13:40 1010 29.83 840 24.81 20.1 68.2 46 8.2 46.8
13:45 1010 29.83 840 24.81 19.9 67.9 46 8.2 46.8
13:50 1010 29.83 839 24.78 19.4 67 53 9.6 49.3
13:55 1010 29.83 839 24.78 19.1 66.4 49 8.2 46.8
14:00 1010 29.83 839 24.78 18.9 66.1 47 7.6 45.6
14:05 1010 29.83 839 24.78 18.7 65.6 50 8.2 46.7
14:10 1010 29.83 839 24.78 18 64.4 57 9.5 49.1
14:15 1010 29.83 840 24.81 16.3 61.3 63 9.2 48.6
14:20 1011 29.85 840 24.81 14.2 57.5 78 10.5 50.8
14:25 1010 29.83 840 24.81 12.7 54.8 81 9.5 49.2
14:30 1011 29.85 840 24.81 12.6 54.7 81 9.5 49
14:35 1011 29.85 840 24.81 13 55.4 82 10.1 50.2
14:40 1010 29.83 839 24.78 14 57.3 83 11.2 52.2
14:45 1010 29.83 839 24.78 14.4 57.9 78 10.7 51.3
14:50 1010 29.83 839 24.78 14.4 57.9 78 10.6 51.1
14:55 1010 29.83 839 24.78 14.2 57.6 79 10.7 51.3
15:00 1010 29.83 839 24.78 14.5 58.2 72 9.5 49.2
15:05 1010 29.83 839 24.78 14.6 58.4 68 8.9 48.1
15:10 1010 29.83 839 24.78 14.4 57.9 72 9.5 49.1
15:15 1010 29.83 839 24.78 14 57.1 72 8.9 48.1
15:20 1010 29.83 839 24.78 13.8 56.9 68 8.1 46.6
15:25 1010 29.83 839 24.78 13.6 56.6 69 8.1 46.5
15:30 1010 29.83 839 24.78 13.7 56.6 71 8.5 47.2
15:35 1010 29.83 839 24.78 13.7 56.7 66 7.6 45.7
15:40 1010 29.83 840 24.81 13.8 56.8 67 7.9 46.2
15:45 1011 29.85 840 24.81 13.8 56.8 70 8.4 47.2
15:50 1011 29.85 840 24.81 13.9 56.9 70 8.6 47.5
15:55 1011 29.85 840 24.81 13.7 56.6 70 8.3 47
16:00 1012 29.88 841 24.83 13.7 56.6 71 8.6 47.4
16:05 1012 29.88 841 24.83 13.8 56.8 69 8.3 47
16:10 1012 29.88 841 24.83 13.9 57.1 71 8.8 47.9
16:15 1012 29.88 841 24.83 13.7 56.6 72 8.7 47.6
16:20 1012 29.88 841 24.83 13.1 55.5 77 9.1 48.4
16:25 1012 29.88 841 24.83 12.4 54.4 79 9 48.2
16:30 1011 29.85 840 24.81 12.2 53.9 82 9.2 48.5
16:35 1011 29.85 840 24.81 12.1 53.8 84 9.6 49.2
16:40 1011 29.85 840 24.81 12.3 54.2 84 9.7 49.5
16:45 1011 29.85 840 24.81 12.6 54.6 86 10.3 50.5
16:50 1011 29.85 840 24.81 12.8 55 82 9.8 49.7
16:55 1011 29.85 840 24.81 12.9 55.2 80 9.5 49.2
17:00 1011 29.85 840 24.81 13.2 55.7 80 9.8 49.6
17:05 1010 29.83 839 24.78 13.2 55.8 80 9.9 49.8
17:10 1010 29.83 839 24.78 13.1 55.6 81 10 50
17:15 1010 29.83 839 24.78 13.1 55.5 82 10.2 50.3
17:20 1009 29.8 839 24.78 13 55.4 82 10.1 50.1
17:25 1009 29.8 838 24.75 13 55.4 79 9.4 49
17:30 1009 29.8 839 24.78 13.2 55.8 77 9.3 48.8
17:35 1009 29.8 839 24.78 13.3 55.9 76 9.2 48.6
17:40 1009 29.8 839 24.78 13.5 56.3 76 9.3 48.7
17:45 1009 29.8 838 24.75 13.7 56.7 70 8.5 47.3
17:50 1009 29.8 838 24.75 13.9 56.9 73 9.1 48.3
17:55 1009 29.8 838 24.75 14.1 57.3 70 8.7 47.6
18:00 1009 29.8 838 24.75 14.4 57.9 67 8.3 47
18:05 1009 29.8 838 24.75 14.6 58.3 67 8.6 47.5
18:10 1009 29.8 838 24.75 14.6 58.3 66 8.4 47.1
18:15 1009 29.8 838 24.75 14.7 58.4 66 8.5 47.3
18:20 1009 29.8 838 24.75 14.9 58.7 65 8.3 46.9
18:25 1009 29.8 838 24.75 15 59.1 62 8 46.3
18:30 1009 29.8 838 24.75 15.1 59.2 62 7.9 46.3
18:35 1009 29.8 838 24.75 15.1 59.1 62 8 46.4
18:40 1009 29.8 838 24.75 15 59.1 63 8 46.5
18:45 1009 29.8 838 24.75 15.1 59.1 63 8.2 46.8
18:50 1009 29.8 838 24.75 15 59.1 64 8.3 47
18:55 1010 29.83 839 24.78 15 59 66 8.8 47.8
19:00 1010 29.83 839 24.78 15.3 59.5 48 4.5 40.1
19:05 1010 29.83 839 24.78 16.1 61 50 5.6 42.2
19:10 1010 29.83 839 24.78 15.2 59.4 53 5.7 42.2
19:15 1010 29.83 840 24.81 14.8 58.6 55 5.9 42.7
19:20 1011 29.85 840 24.81 14.4 57.9 58 6.4 43.4
19:25 1011 29.85 840 24.81 14.2 57.5 56 5.6 42.1
19:30 1011 29.85 841 24.83 14.1 57.5 57 5.9 42.6
19:35 1012 29.88 841 24.83 14.1 57.4 59 6.2 43.1
19:40 1012 29.88 841 24.83 14.2 57.5 61 6.8 44.2
19:45 1012 29.88 841 24.83 14.2 57.6 62 7.2 44.9
19:50 1011 29.85 841 24.83 13.9 56.9 66 7.7 45.8
19:55 1011 29.85 840 24.81 13.4 56.2 61 6.2 43.1
20:00 1011 29.85 840 24.81 13.3 56 60 5.8 42.4
20:05 1011 29.85 840 24.81 13.7 56.6 56 5.1 41.2
20:10 1011 29.85 841 24.83 13.8 56.9 56 5.4 41.7
20:15 1012 29.88 841 24.83 13.9 57.1 57 5.6 42.1
20:20 1011 29.85 841 24.83 13.8 56.9 62 6.7 44
20:25 1011 29.85 841 24.83 13.5 56.3 64 7 44.6
20:30 1011 29.85 841 24.83 13.2 55.8 68 7.4 45.4
20:35 1011 29.85 841 24.83 12.7 54.8 74 8.1 46.5
20:40 1012 29.88 841 24.83 11.9 53.4 78 8.2 46.7
20:45 1012 29.88 841 24.83 11.5 52.6 79 7.9 46.2
20:50 1012 29.88 841 24.83 11.3 52.4 79 7.8 46
20:55 1012 29.88 841 24.83 11.2 52.2 79 7.8 46
21:00 1012 29.88 841 24.83 11.2 52.1 80 7.8 46
21:05 1012 29.88 841 24.83 11.1 52 79 7.7 45.9
21:10 1012 29.88 841 24.83 11.1 52 79 7.6 45.7
21:15 1012 29.88 842 24.86 11 51.9 79 7.5 45.5
21:20 1012 29.88 842 24.86 10.9 51.7 79 7.5 45.5
21:25 1012 29.88 842 24.86 10.7 51.2 81 7.5 45.5
21:30 1013 29.91 842 24.86 10.5 50.9 79 7 44.7
21:35 1013 29.91 842 24.86 10.4 50.7 80 7 44.7
21:40 1013 29.91 842 24.86 10.5 51 81 7.3 45.2
21:45 1013 29.91 842 24.86 10.6 51 81 7.4 45.3
21:50 1012 29.88 842 24.86 10.4 50.8 81 7.4 45.3
21:55 1013 29.91 842 24.86 10.3 50.5 82 7.3 45.2
22:00 1013 29.91 842 24.86 10.4 50.7 82 7.4 45.3
22:05 1013 29.91 842 24.86 10.4 50.8 81 7.4 45.3
22:10 1013 29.91 842 24.86 10.4 50.8 82 7.6 45.6
22:15 1013 29.91 842 24.86 10.4 50.8 82 7.6 45.6
22:20 1013 29.91 842 24.86 10.3 50.5 83 7.5 45.6
22:25 1013 29.91 842 24.86 10.2 50.3 82 7.3 45.2
22:30 1013 29.91 843 24.89 10 50.1 84 7.4 45.4
22:35 1013 29.91 842 24.86 10 50.1 84 7.5 45.5
22:40 1012 29.88 841 24.83 10.1 50.1 85 7.6 45.7
22:45 1012 29.88 842 24.86 10 49.9 86 7.7 45.8
22:50 1013 29.91 842 24.86 9.8 49.6 86 7.6 45.7
22:55 1013 29.91 842 24.86 9.8 49.6 86 7.6 45.7
23:00 1013 29.91 842 24.86 9.9 49.8 86 7.7 45.8
23:05 1013 29.91 842 24.86 9.9 49.8 86 7.6 45.7
23:10 1013 29.91 842 24.86 9.9 49.8 86 7.7 45.8
23:15 1013 29.91 842 24.86 9.9 49.9 86 7.7 45.9
23:20 1013 29.91 842 24.86 9.9 49.8 86 7.7 45.9
23:25 1013 29.91 842 24.86 9.9 49.8 87 7.8 46
23:30 1013 29.91 842 24.86 9.9 49.8 87 7.8 46
23:35 1013 29.91 842 24.86 9.9 49.7 87 7.8 46.1
23:40 1013 29.91 842 24.86 9.9 49.7 88 7.9 46.2
23:45 1013 29.91 842 24.86 9.8 49.6 88 7.8 46.1
23:50 1013 29.91 842 24.86 9.6 49.2 88 7.7 45.9
23:55 1013 29.91 842 24.86 9.4 48.9 89 7.7 45.9
24:00 1012 29.88 842 24.86 9.4 48.9 90 7.7 45.9